createdAt,value
2023-02-21T00:01:42.113Z,5.35
2023-02-21T00:05:25.604Z,5.65
2023-02-21T00:08:12.184Z,5.18
2023-02-21T00:10:58.177Z,4.68
2023-02-21T00:13:48.906Z,4.87
2023-02-21T00:16:36.807Z,4.88
2023-02-21T00:19:26.179Z,5.72
2023-02-21T00:22:13.943Z,5.13
2023-02-21T00:31:17.288Z,4.38
2023-02-21T00:34:10.025Z,4.97
2023-02-21T00:36:59.188Z,4.28
2023-02-21T00:39:54.330Z,4.90
2023-02-21T00:42:42.871Z,4.20
2023-02-21T00:45:30.047Z,4.25
2023-02-21T00:48:17.903Z,4.35
2023-02-21T00:51:03.558Z,4.18
2023-02-21T00:53:49.141Z,4.35
2023-02-21T00:56:41.379Z,3.90
2023-02-21T01:00:12.956Z,4.15
2023-02-21T01:03:01.358Z,4.35
2023-02-21T01:05:50.587Z,3.72
2023-02-21T01:08:36.461Z,3.90
2023-02-21T01:11:24.449Z,4.07
2023-02-21T01:14:20.361Z,4.30
2023-02-21T01:37:12.335Z,3.30
2023-02-21T01:40:04.180Z,3.10
2023-02-21T01:42:49.719Z,3.38
2023-02-21T01:45:40.759Z,3.33
2023-02-21T01:48:36.124Z,3.05
2023-02-21T01:51:23.785Z,3.13
2023-02-21T01:54:12.846Z,3.20
2023-02-21T01:57:02.259Z,3.47
2023-02-21T01:59:58.662Z,3.10
2023-02-21T02:06:32.300Z,2.90
2023-02-21T02:09:17.596Z,2.53
2023-02-21T02:12:25.517Z,3.05
2023-02-21T02:15:16.404Z,2.70
2023-02-21T02:18:14.159Z,2.80
2023-02-21T02:21:05.628Z,3.22
2023-02-21T02:23:35.565Z,2.80
2023-02-21T02:26:45.647Z,2.58
2023-02-21T02:29:55.640Z,2.40
2023-02-21T02:33:01.660Z,2.05
2023-02-21T02:35:34.046Z,2.15
2023-02-21T02:38:10.302Z,2.20
2023-02-21T02:40:49.820Z,2.63
2023-02-21T02:43:43.713Z,1.80
2023-02-21T02:46:35.499Z,2.00
2023-02-21T02:49:22.968Z,2.20
2023-02-21T02:52:14.686Z,2.03
2023-02-21T02:54:48.404Z,1.77
2023-02-21T02:57:34.239Z,1.87
2023-02-21T03:07:52.846Z,1.45
2023-02-21T03:10:38.346Z,1.67
2023-02-21T03:13:39.401Z,1.37
2023-02-21T03:16:13.589Z,1.40
2023-02-21T03:18:48.355Z,1.77
2023-02-21T03:21:33.750Z,1.48
2023-02-21T03:24:23.870Z,1.30
2023-02-21T03:27:15.302Z,1.40
2023-02-21T03:30:05.916Z,1.10
2023-02-21T03:32:55.807Z,1.48
2023-02-21T03:35:54.855Z,1.15
2023-02-21T03:38:44.592Z,1.02
2023-02-21T03:42:00.856Z,0.87
2023-02-21T03:44:47.591Z,1.05
2023-02-21T03:47:59.820Z,1.30
2023-02-21T03:50:46.737Z,1.15
2023-02-21T03:53:33.504Z,1.25
2023-02-21T03:56:20.914Z,1.10
2023-02-21T03:59:09.527Z,0.80
2023-02-21T04:01:56.386Z,1.10
2023-02-21T04:04:43.101Z,1.08
2023-02-21T04:07:32.439Z,1.05
2023-02-21T04:15:04.700Z,1.38
2023-02-21T04:17:51.184Z,1.15
2023-02-21T04:20:40.708Z,1.10
2023-02-21T04:23:30.660Z,1.10
2023-02-21T04:26:38.994Z,1.20
2023-02-21T04:29:27.184Z,0.95
2023-02-21T04:32:15.089Z,1.25
2023-02-21T04:35:03.320Z,1.30
2023-02-21T04:37:49.897Z,1.70
2023-02-21T04:40:36.446Z,1.30
2023-02-21T04:43:23.097Z,0.90
2023-02-21T04:46:08.632Z,1.10
2023-02-21T04:48:38.780Z,1.17
2023-02-21T04:51:15.913Z,1.27
2023-02-21T04:53:47.921Z,0.93
2023-02-21T04:56:23.654Z,1.20
2023-02-21T04:58:53.749Z,1.30
2023-02-21T05:01:40.341Z,1.17
2023-02-21T05:04:27.221Z,1.10
2023-02-21T05:07:13.878Z,1.40
2023-02-21T05:09:43.975Z,1.10
2023-02-21T05:12:13.994Z,1.08
2023-02-21T05:14:43.989Z,1.25
2023-02-21T05:17:15.300Z,1.20
2023-02-21T05:19:47.229Z,1.37
2023-02-21T05:22:22.217Z,1.27
2023-02-21T05:24:53.652Z,1.15
2023-02-21T05:27:30.478Z,1.10
2023-02-21T05:30:00.641Z,1.27
2023-02-21T05:32:30.743Z,1.10
2023-02-21T05:35:01.084Z,1.10
2023-02-21T05:37:31.536Z,1.15
2023-02-21T05:40:02.354Z,1.17
2023-02-21T05:42:32.705Z,1.50
2023-02-21T05:45:18.672Z,1.27
2023-02-21T05:48:04.111Z,1.50
2023-02-21T05:50:49.279Z,1.30
2023-02-21T05:53:37.622Z,1.15
2023-02-21T05:56:10.671Z,1.42
2023-02-21T06:01:50.538Z,1.27
2023-02-21T06:08:01.499Z,1.33
2023-02-21T06:17:36.792Z,1.98
2023-02-21T06:20:27.882Z,1.58
2023-02-21T06:23:23.114Z,1.75
2023-02-21T06:26:10.937Z,1.80
2023-02-21T06:32:41.098Z,1.50
2023-02-21T06:39:58.444Z,1.58
2023-02-21T06:47:26.796Z,1.73
2023-02-21T06:50:01.264Z,1.90
2023-02-21T07:02:19.984Z,1.90
2023-02-21T07:04:52.608Z,2.27
2023-02-21T08:01:21.334Z,2.33
2023-02-21T08:21:32.280Z,2.60
2023-02-21T08:24:46.561Z,3.13
2023-02-21T08:27:44.019Z,2.80
2023-02-21T08:38:26.111Z,3.20
2023-02-21T08:41:16.627Z,2.72
2023-02-21T08:44:24.227Z,3.25
2023-02-21T08:47:28.354Z,3.72
2023-02-21T08:49:57.256Z,3.45
2023-02-21T08:52:35.239Z,3.57
2023-02-21T08:55:02.198Z,3.83
2023-02-21T08:57:31.762Z,3.92
2023-02-21T08:59:59.008Z,3.45
2023-02-21T09:03:09.680Z,3.25
2023-02-21T09:05:39.504Z,3.80
2023-02-21T09:08:16.088Z,3.83
2023-02-21T09:11:05.192Z,3.75
2023-02-21T09:14:14.304Z,3.67
2023-02-21T09:16:49.797Z,4.30
2023-02-21T09:19:26.823Z,3.73
2023-02-21T09:22:10.157Z,4.10
2023-02-21T09:24:48.472Z,4.00
2023-02-21T09:27:54.811Z,4.15
2023-02-21T09:30:44.146Z,4.43
2023-02-21T09:33:15.295Z,4.17
2023-02-21T09:35:44.986Z,4.70
2023-02-21T09:38:12.042Z,4.85
2023-02-21T09:40:56.838Z,4.70
2023-02-21T09:43:49.113Z,4.90
2023-02-21T09:46:40.799Z,4.97
2023-02-21T09:49:49.912Z,4.57
2023-02-21T09:52:43.274Z,5.00
2023-02-21T09:56:54.745Z,4.90
2023-02-21T10:02:59.627Z,4.20
2023-02-21T10:06:24.038Z,4.68
2023-02-21T11:00:56.564Z,3.43
2023-02-21T11:04:13.495Z,3.88
2023-02-21T11:14:52.647Z,3.58
2023-02-21T11:20:28.831Z,3.13
2023-02-21T11:23:41.719Z,3.50
2023-02-21T11:26:46.066Z,3.70
2023-02-21T11:30:14.855Z,3.40
2023-02-21T11:33:15.699Z,4.60
2023-02-21T11:36:15.315Z,4.07
2023-02-21T11:39:42.475Z,3.80
2023-02-21T11:42:33.388Z,3.45
2023-02-21T11:45:45.781Z,3.50
2023-02-21T11:48:43.591Z,3.33
2023-02-21T11:51:39.623Z,3.53
2023-02-21T11:55:04.779Z,3.70
2023-02-21T11:57:41.669Z,4.43
2023-02-21T12:15:00.175Z,4.05
2023-02-21T12:17:23.858Z,4.38
2023-02-21T12:20:53.664Z,4.43
2023-02-21T12:24:06.151Z,4.05
2023-02-21T12:27:27.948Z,4.22
2023-02-21T12:46:25.118Z,3.47
2023-02-21T12:49:34.707Z,4.30
2023-02-21T12:52:49.458Z,4.75
2023-02-21T12:55:40.978Z,4.90
2023-02-21T13:03:40.774Z,4.97
2023-02-21T13:10:01.314Z,4.53
2023-02-21T13:21:43.745Z,5.25
2023-02-21T13:27:56.450Z,4.97
2023-02-21T14:03:35.123Z,6.00
2023-02-21T14:06:33.322Z,5.30
2023-02-21T16:01:10.299Z,3.88
2023-02-21T17:04:27.241Z,3.00
2023-02-21T17:06:58.509Z,2.67
2023-02-21T17:09:27.980Z,2.70
2023-02-21T17:11:55.267Z,2.90
2023-02-21T17:14:22.482Z,2.25
2023-02-21T17:16:49.252Z,2.83
2023-02-21T17:19:18.210Z,3.50
2023-02-21T17:21:45.565Z,3.40
2023-02-21T17:24:14.720Z,2.97
2023-02-21T17:26:42.111Z,3.45
2023-02-21T17:29:12.053Z,3.60
2023-02-21T17:31:38.713Z,3.20
2023-02-21T17:34:06.071Z,3.22
2023-02-21T17:36:32.728Z,3.07
2023-02-21T17:38:59.397Z,2.97
2023-02-21T17:41:46.594Z,2.88
2023-02-21T17:44:13.625Z,2.92
2023-02-21T17:46:40.213Z,3.20
2023-02-21T17:49:06.885Z,3.30
2023-02-21T17:51:34.282Z,3.40
2023-02-21T17:54:00.860Z,3.35
2023-02-21T17:56:28.068Z,3.30
2023-02-21T17:58:55.264Z,4.05
2023-02-21T18:01:22.640Z,4.37
2023-02-21T18:03:49.387Z,4.25
2023-02-21T18:06:16.119Z,4.45
2023-02-21T18:08:44.988Z,4.78
2023-02-21T18:11:13.280Z,4.40
2023-02-21T18:13:40.251Z,5.67
2023-02-21T18:16:07.592Z,8.65
2023-02-21T18:18:34.300Z,10.95
2023-02-21T18:21:02.631Z,9.63
2023-02-21T18:23:30.241Z,12.52
2023-02-21T18:25:57.515Z,10.53
2023-02-21T18:28:24.792Z,13.07
2023-02-21T18:30:51.917Z,13.80
2023-02-21T18:33:18.962Z,15.02
2023-02-21T18:35:45.562Z,16.77
2023-02-21T18:38:13.091Z,13.97
2023-02-21T18:40:44.752Z,11.35
2023-02-21T18:43:18.171Z,10.10
2023-02-21T18:45:45.398Z,8.10
2023-02-21T18:48:12.147Z,8.13
2023-02-21T18:50:38.860Z,7.40
2023-02-21T18:53:05.887Z,6.90
2023-02-21T18:55:32.898Z,7.20
2023-02-21T18:58:00.191Z,6.72
2023-02-21T19:00:28.005Z,6.95
2023-02-21T19:02:55.359Z,6.83
2023-02-21T19:05:24.128Z,6.25
2023-02-21T19:07:53.520Z,6.97
2023-02-21T19:10:23.572Z,6.63
2023-02-21T19:12:50.526Z,6.18
2023-02-21T19:15:18.892Z,6.63
2023-02-21T19:17:46.222Z,7.30
2023-02-21T23:09:39.700Z,14.53
2023-02-21T23:12:16.375Z,15.55
2023-02-21T23:14:55.104Z,15.88
2023-02-21T23:17:41.188Z,15.05
2023-02-21T23:20:29.897Z,15.23
2023-02-21T23:22:59.358Z,17.07
2023-02-21T23:25:35.070Z,15.95
2023-02-21T23:28:13.440Z,15.88
2023-02-21T23:30:41.516Z,12.95
2023-02-21T23:33:15.675Z,15.90
2023-02-21T23:35:43.985Z,16.40
2023-02-21T23:38:15.694Z,15.82
2023-02-21T23:40:44.825Z,16.30
2023-02-21T23:43:16.941Z,16.98
2023-02-21T23:45:48.292Z,16.55
2023-02-21T23:48:15.777Z,16.70
2023-02-21T23:50:45.204Z,17.73
2023-02-21T23:53:17.505Z,17.45
2023-02-21T23:55:46.648Z,17.15
2023-02-21T23:58:18.707Z,16.83
